Time;durP1;ratioP1;P1;durP2;ratioP2;P2;SDS_P1;SDS_P2;PMS_P1;PMS_P2;Temp;Humidity;BMP_temperature;BMP_pressure;BME280_temperature;BME280_humidity;BME280_pressure;Samples;Min_cycle;Max_cycle;Signal;HPM_P1;HPM_P2
2023/12/08 00:02:18;;;;;;;13.65;9.43;;;;;;;1.15;67.84;93881.56;4897884;29;20445;-78
2023/12/08 00:04:44;;;;;;;11.02;9.82;;;;;;;1.15;67.53;93876.34;4897673;29;20071;-77
2023/12/08 00:07:09;;;;;;;13.43;9.15;;;;;;;1.14;67.31;93893.88;4900219;29;20051;-78
2023/12/08 00:09:35;;;;;;;13.60;10.00;;;;;;;1.04;67.36;93874.69;4895494;29;20064;-78
2023/12/08 00:12:01;;;;;;;11.52;9.38;;;;;;;1.01;67.63;93888.28;4887005;29;20048;-78
2023/12/08 00:14:27;;;;;;;12.13;9.15;;;;;;;0.78;68.78;93877.16;4880168;29;20049;-78
2023/12/08 00:16:53;;;;;;;11.70;8.45;;;;;;;1.02;67.78;93908.22;4894641;29;20076;-76
2023/12/08 00:19:18;;;;;;;14.07;10.00;;;;;;;1.01;67.84;93906.63;4883728;29;20024;-76
2023/12/08 00:21:44;;;;;;;14.55;9.65;;;;;;;0.80;68.21;93888.13;4884849;29;20036;-76
2023/12/08 00:24:09;;;;;;;12.80;9.63;;;;;;;0.49;69.43;93883.72;4897866;29;20043;-76
2023/12/08 00:26:35;;;;;;;15.13;9.57;;;;;;;0.62;69.49;93872.81;4887617;29;20036;-76
2023/12/08 00:29:00;;;;;;;12.68;9.07;;;;;;;0.68;69.63;93903.25;4881543;29;20024;-78
2023/12/08 00:31:26;;;;;;;11.90;8.82;;;;;;;0.66;69.71;93879.13;4887829;29;20056;-78
2023/12/08 00:33:51;;;;;;;12.55;8.50;;;;;;;0.71;69.64;93889.63;4884461;29;20025;-78
2023/12/08 00:36:17;;;;;;;13.25;8.95;;;;;;;0.70;69.29;93880.19;4897452;29;20040;-76
2023/12/08 00:38:44;;;;;;;13.13;8.82;;;;;;;1.03;68.46;93873.91;4883686;29;20063;-77
2023/12/08 00:41:10;;;;;;;15.07;9.73;;;;;;;0.97;68.34;93887.22;4895838;29;20041;-76
2023/12/08 00:43:36;;;;;;;15.75;10.63;;;;;;;1.04;68.44;93879.91;4886990;29;20040;-76
2023/12/08 00:46:01;;;;;;;35.53;23.30;;;;;;;0.98;67.23;93875.72;4882130;29;20028;-78
2023/12/08 00:48:28;;;;;;;63.00;38.90;;;;;;;0.76;67.32;93850.41;4884299;29;20785;-77
2023/12/08 00:50:53;;;;;;;71.43;42.00;;;;;;;1.07;67.78;93889.91;4883324;29;20084;-77
2023/12/08 00:53:20;;;;;;;54.83;36.72;;;;;;;1.10;67.53;93884.16;4882420;29;20041;-78
2023/12/08 00:55:45;;;;;;;37.85;24.23;;;;;;;0.93;67.15;93870.44;4878020;29;20570;-78
2023/12/08 00:58:13;;;;;;;31.65;22.35;;;;;;;1.03;66.65;93900.09;4883144;29;20027;-77
2023/12/08 01:00:38;;;;;;;24.73;17.67;;;;;;;1.09;67.30;93900.91;4885045;29;20109;-79
2023/12/08 01:03:04;;;;;;;17.45;12.95;;;;;;;0.78;67.14;93878.97;4881129;29;20045;-77
2023/12/08 01:05:29;;;;;;;17.58;11.98;;;;;;;0.67;67.58;93864.22;4885869;29;20140;-77
2023/12/08 01:07:55;;;;;;;13.95;9.85;;;;;;;0.93;67.00;93904.47;4882461;29;20595;-77
2023/12/08 01:10:20;;;;;;;13.45;9.85;;;;;;;0.95;67.14;93905.78;4886384;29;20024;-79
2023/12/08 01:12:48;;;;;;;13.35;9.50;;;;;;;0.94;66.75;93896.34;4879270;29;20048;-78
2023/12/08 01:15:14;;;;;;;11.55;9.20;;;;;;;0.98;66.52;93886.19;4884434;29;20529;-78
2023/12/08 01:17:39;;;;;;;10.13;7.88;;;;;;;1.28;65.82;93899.47;4885072;29;20119;-77
2023/12/08 01:20:07;;;;;;;9.48;7.95;;;;;;;1.26;65.56;93901.56;4885073;29;21047;-79
2023/12/08 01:22:34;;;;;;;10.18;7.40;;;;;;;1.12;65.63;93890.75;4885733;29;20465;-79
2023/12/08 01:24:59;;;;;;;12.18;9.00;;;;;;;1.30;65.25;93894.78;4886594;29;20047;-78
2023/12/08 01:27:24;;;;;;;10.20;7.75;;;;;;;1.33;64.94;93893.47;4883884;29;20044;-78
2023/12/08 01:29:50;;;;;;;12.63;9.02;;;;;;;1.32;64.88;93887.44;4881801;29;20054;-78
2023/12/08 01:32:15;;;;;;;11.80;8.52;;;;;;;1.19;64.21;93877.41;4883982;29;20567;-76
2023/12/08 01:34:41;;;;;;;10.88;8.20;;;;;;;1.22;63.91;93884.78;4884139;29;20043;-78
2023/12/08 01:37:07;;;;;;;14.23;9.35;;;;;;;1.20;64.29;93890.25;4883097;29;20705;-76
2023/12/08 01:39:32;;;;;;;9.57;7.03;;;;;;;1.01;64.89;93909.25;4879851;29;20563;-77
2023/12/08 01:41:58;;;;;;;13.68;8.65;;;;;;;0.99;65.67;93903.44;4884405;29;20607;-78
2023/12/08 01:44:23;;;;;;;11.30;8.73;;;;;;;1.12;65.10;93900.44;4884267;29;20040;-78
2023/12/08 01:46:50;;;;;;;11.73;8.35;;;;;;;1.12;64.55;93903.03;4880041;29;20535;-80
2023/12/08 01:49:16;;;;;;;10.43;8.02;;;;;;;1.21;64.37;93893.66;4883965;29;20115;-78
2023/12/08 01:51:43;;;;;;;12.05;8.07;;;;;;;1.09;63.83;93877.34;4881987;29;20052;-76
2023/12/08 01:54:09;;;;;;;9.70;6.65;;;;;;;1.08;63.98;93860.81;4882488;29;20066;-75
2023/12/08 01:56:35;;;;;;;9.82;6.68;;;;;;;1.26;63.96;93892.91;4901491;29;20475;-78
2023/12/08 01:59:01;;;;;;;10.75;7.45;;;;;;;1.18;63.66;93896.81;4884552;29;20115;-76
2023/12/08 02:01:31;;;;;;;11.55;8.23;;;;;;;1.20;63.51;93900.72;4884532;29;20053;-77
2023/12/08 02:03:57;;;;;;;11.70;7.78;;;;;;;1.21;64.21;93885.81;4898648;29;20196;-76
2023/12/08 02:06:22;;;;;;;9.68;7.68;;;;;;;1.20;63.94;93895.50;4882015;29;20031;-77
2023/12/08 02:08:47;;;;;;;10.98;7.85;;;;;;;1.20;63.54;93899.94;4899380;29;20107;-77
2023/12/08 02:11:14;;;;;;;10.10;8.05;;;;;;;1.13;64.25;93884.44;4882961;29;20037;-79
2023/12/08 02:13:41;;;;;;;10.95;7.68;;;;;;;1.31;63.84;93906.84;4897667;29;20489;-78
2023/12/08 02:16:28;;;;;;;9.35;7.05;;;;;;;1.16;63.04;93904.91;4880616;29;20108;-77
2023/12/08 02:18:55;;;;;;;10.15;7.55;;;;;;;1.06;63.64;93909.28;4882370;29;20041;-80
2023/12/08 02:21:21;;;;;;;9.90;7.38;;;;;;;1.04;63.50;93919.19;4871474;29;20040;-76
2023/12/08 02:23:49;;;;;;;12.00;8.85;;;;;;;0.97;64.56;93916.03;4880668;29;20040;-77
2023/12/08 02:26:17;;;;;;;11.15;7.60;;;;;;;1.02;65.29;93916.84;4885226;29;20040;-77
2023/12/08 02:28:43;;;;;;;9.63;6.78;;;;;;;0.94;63.93;93906.03;4884414;29;20095;-78
2023/12/08 02:31:15;;;;;;;10.13;7.03;;;;;;;1.05;64.31;93918.16;4883322;29;20115;-78
2023/12/08 02:33:46;;;;;;;9.88;7.18;;;;;;;0.99;64.19;93898.22;4893127;29;20548;-79
2023/12/08 02:36:16;;;;;;;10.32;7.07;;;;;;;0.90;64.67;93915.44;4881429;29;20072;-78
2023/12/08 02:38:43;;;;;;;10.25;7.63;;;;;;;1.01;64.51;93909.25;4883866;29;20049;-78
2023/12/08 02:41:08;;;;;;;10.55;7.13;;;;;;;1.05;63.09;93886.75;4883757;29;20039;-79
2023/12/08 02:43:34;;;;;;;9.20;6.28;;;;;;;1.12;63.72;93888.13;4883834;29;20040;-78
2023/12/08 02:46:00;;;;;;;10.90;7.63;;;;;;;1.26;63.24;93896.31;4886039;29;20039;-78
2023/12/08 02:48:25;;;;;;;10.70;7.07;;;;;;;1.25;62.84;93920.94;4880220;29;20437;-77
2023/12/08 02:50:51;;;;;;;9.18;7.03;;;;;;;1.10;63.01;93895.44;4883700;29;20037;-78
2023/12/08 02:53:17;;;;;;;8.27;6.70;;;;;;;1.07;62.93;93906.41;4869343;29;20127;-77
2023/12/08 02:55:43;;;;;;;8.45;6.30;;;;;;;1.26;62.88;93911.25;4884070;29;20409;-76
2023/12/08 02:58:09;;;;;;;8.77;6.40;;;;;;;1.18;62.21;93891.56;4896876;29;20012;-78
2023/12/08 03:00:34;;;;;;;8.73;6.15;;;;;;;1.40;62.01;93900.06;4882644;29;20473;-78
2023/12/08 03:02:59;;;;;;;6.90;6.03;;;;;;;1.53;61.88;93919.78;4879820;29;20496;-77
2023/12/08 03:05:25;;;;;;;9.98;7.65;;;;;;;1.10;62.32;93873.69;4883377;29;20432;-78
2023/12/08 03:07:51;;;;;;;10.77;6.95;;;;;;;1.17;62.67;93900.47;4880601;29;20028;-76
2023/12/08 03:10:16;;;;;;;8.80;6.55;;;;;;;1.36;61.37;93909.47;4882764;29;20503;-75
2023/12/08 03:12:42;;;;;;;10.30;7.32;;;;;;;1.14;61.43;93906.97;4884183;29;20048;-77
2023/12/08 03:15:08;;;;;;;9.73;6.45;;;;;;;0.94;62.61;93906.03;4879646;29;20048;-76
2023/12/08 03:17:34;;;;;;;8.75;7.18;;;;;;;0.60;63.90;93889.78;4884471;29;20045;-78
2023/12/08 03:19:59;;;;;;;10.80;6.95;;;;;;;0.62;64.75;93888.53;4881000;29;20083;-78
2023/12/08 03:22:24;;;;;;;9.15;6.72;;;;;;;0.87;64.35;93901.03;4879396;29;20043;-77
2023/12/08 03:24:50;;;;;;;11.50;8.38;;;;;;;1.08;64.43;93907.22;4881636;29;20043;-78
2023/12/08 03:27:15;;;;;;;10.73;8.60;;;;;;;0.79;64.51;93906.72;4883217;29;20037;-78
2023/12/08 03:29:41;;;;;;;12.10;7.60;;;;;;;0.93;64.28;93914.94;4884856;29;20072;-78
2023/12/08 03:32:07;;;;;;;10.55;7.65;;;;;;;1.04;64.09;93913.97;4878295;29;20052;-77
2023/12/08 03:34:33;;;;;;;9.52;7.22;;;;;;;0.97;64.28;93895.06;4883185;29;20028;-75
2023/12/08 03:36:58;;;;;;;9.10;7.03;;;;;;;1.07;64.57;93900.38;4884229;29;20631;-80
2023/12/08 03:39:24;;;;;;;12.18;8.38;;;;;;;1.14;63.85;93911.41;4880664;29;20048;-77
2023/12/08 03:41:49;;;;;;;11.32;7.95;;;;;;;1.16;62.80;93883.16;4881622;29;20040;-78
2023/12/08 03:44:15;;;;;;;10.98;8.30;;;;;;;1.30;62.97;93897.38;4881949;29;20452;-78
2023/12/08 03:46:44;;;;;;;12.52;7.20;;;;;;;1.31;62.62;93895.56;4884164;29;20032;-77
2023/12/08 03:49:09;;;;;;;9.32;7.05;;;;;;;1.25;62.65;93892.13;4884212;29;20144;-78
2023/12/08 03:51:42;;;;;;;9.10;7.03;;;;;;;1.03;63.14;93886.22;4887354;29;20032;-76
2023/12/08 03:54:08;;;;;;;6.97;6.20;;;;;;;1.08;63.26;93892.25;4876339;29;20045;-78
2023/12/08 03:56:33;;;;;;;9.80;7.55;;;;;;;0.82;62.79;93860.91;4886399;29;20564;-79
2023/12/08 03:58:59;;;;;;;9.07;6.53;;;;;;;0.97;62.75;93876.75;4898870;29;20032;-78
2023/12/08 04:01:26;;;;;;;9.63;6.97;;;;;;;0.98;62.91;93886.97;4882205;29;20837;-77
2023/12/08 04:03:51;;;;;;;8.77;6.82;;;;;;;1.04;62.72;93880.72;4887919;29;20033;-78
2023/12/08 04:06:17;;;;;;;8.95;6.28;;;;;;;0.98;62.67;93879.13;4895495;29;20396;-78
2023/12/08 04:08:42;;;;;;;8.70;6.32;;;;;;;0.72;62.76;93872.91;4887123;29;20127;-79
2023/12/08 04:11:07;;;;;;;11.32;7.03;;;;;;;0.63;63.43;93857.91;4883587;29;20687;-77
2023/12/08 04:13:33;;;;;;;8.05;6.25;;;;;;;0.75;63.63;93871.59;4886029;29;20029;-78
2023/12/08 04:15:58;;;;;;;10.13;7.07;;;;;;;0.90;63.74;93847.34;4882765;29;20043;-78
2023/12/08 04:18:24;;;;;;;10.10;6.85;;;;;;;0.91;62.87;93869.88;4898814;29;20396;-76
2023/12/08 04:20:49;;;;;;;8.93;7.25;;;;;;;0.80;63.18;93859.34;4895524;29;20036;-77
2023/12/08 04:23:15;;;;;;;10.35;6.55;;;;;;;0.88;64.08;93867.78;4901337;29;20051;-79
2023/12/08 04:25:41;;;;;;;8.15;5.60;;;;;;;1.11;62.55;93856.94;4894602;29;20032;-77
2023/12/08 04:28:06;;;;;;;9.10;6.70;;;;;;;0.89;61.99;93864.88;4883455;29;20048;-76
2023/12/08 04:30:32;;;;;;;6.88;5.82;;;;;;;0.81;62.82;93865.38;4897569;29;20179;-79
2023/12/08 04:32:57;;;;;;;6.63;5.43;;;;;;;0.77;63.37;93848.59;4898466;29;20497;-78
2023/12/08 04:35:24;;;;;;;9.00;6.55;;;;;;;0.90;62.86;93863.06;4884665;29;20044;-77
2023/12/08 04:37:53;;;;;;;7.13;5.78;;;;;;;0.72;63.22;93859.81;4885145;29;20119;-78
2023/12/08 04:40:18;;;;;;;7.57;5.78;;;;;;;0.74;63.09;93849.88;4884636;29;20025;-78
2023/12/08 04:42:44;;;;;;;8.38;6.82;;;;;;;0.74;62.40;93855.09;4883262;29;20530;-77
2023/12/08 04:45:13;;;;;;;7.50;6.13;;;;;;;0.93;62.70;93881.69;4887712;29;20044;-77
2023/12/08 04:47:38;;;;;;;9.13;7.03;;;;;;;1.01;62.74;93868.13;4881950;29;20044;-78
2023/12/08 04:50:07;;;;;;;7.25;6.55;;;;;;;1.05;61.88;93890.16;4886809;29;20559;-78
2023/12/08 04:52:32;;;;;;;12.20;8.50;;;;;;;1.08;61.62;93873.16;4885422;29;20532;-75
2023/12/08 04:54:58;;;;;;;10.68;8.43;;;;;;;1.13;61.28;93873.19;4884830;29;20045;-78
2023/12/08 04:57:24;;;;;;;19.88;14.43;;;;;;;1.10;60.83;93879.72;4897094;29;20527;-78
2023/12/08 04:59:53;;;;;;;11.15;9.00;;;;;;;1.07;60.57;93897.75;4882339;29;20068;-75
2023/12/08 05:02:19;;;;;;;10.43;6.78;;;;;;;0.96;61.97;93893.50;4882651;29;20493;-77
2023/12/08 05:04:44;;;;;;;10.35;7.78;;;;;;;1.15;61.66;93899.91;4883202;29;20307;-79
2023/12/08 05:07:10;;;;;;;9.70;7.93;;;;;;;1.01;61.67;93898.75;4883840;29;20449;-79
2023/12/08 05:09:36;;;;;;;9.45;7.07;;;;;;;0.71;62.44;93881.78;4883501;29;20044;-76
2023/12/08 05:12:02;;;;;;;22.20;14.85;;;;;;;0.76;62.15;93892.31;4895110;29;20044;-76
2023/12/08 05:14:27;;;;;;;9.20;6.75;;;;;;;0.46;63.72;93886.00;4882294;29;20862;-79
2023/12/08 05:16:52;;;;;;;8.02;6.30;;;;;;;0.75;63.80;93906.41;4883836;29;20037;-78
2023/12/08 05:19:18;;;;;;;8.43;7.13;;;;;;;0.85;63.17;93894.44;4886054;29;20020;-78
2023/12/08 05:21:43;;;;;;;8.07;6.05;;;;;;;1.08;61.97;93901.97;4883949;29;20417;-77
2023/12/08 05:24:09;;;;;;;8.77;6.93;;;;;;;0.92;62.71;93892.41;4885448;29;20165;-78
2023/12/08 05:26:35;;;;;;;8.52;5.93;;;;;;;1.03;63.68;93888.84;4883473;29;20492;-79
2023/12/08 05:29:00;;;;;;;7.50;5.43;;;;;;;1.18;63.32;93896.81;4883501;29;20043;-78
2023/12/08 05:31:26;;;;;;;10.13;7.57;;;;;;;1.26;62.92;93898.16;4873083;29;21485;-78
2023/12/08 05:33:51;;;;;;;15.25;9.55;;;;;;;1.37;62.16;93884.88;4896719;29;20048;-79
2023/12/08 05:36:17;;;;;;;14.38;9.40;;;;;;;1.36;62.04;93879.88;4884932;29;20052;-79
2023/12/08 05:38:43;;;;;;;10.00;8.00;;;;;;;1.38;61.71;93883.78;4885118;29;20035;-77
2023/12/08 05:41:08;;;;;;;11.32;8.75;;;;;;;1.24;62.21;93893.16;4878873;29;20033;-79
2023/12/08 05:43:39;;;;;;;21.88;16.63;;;;;;;1.36;62.37;93909.47;4885815;29;20075;-78
2023/12/08 05:46:06;;;;;;;14.77;9.65;;;;;;;1.35;61.21;93892.19;4883039;29;20619;-78
2023/12/08 05:48:31;;;;;;;12.38;9.40;;;;;;;1.36;60.81;93904.25;4883358;29;20040;-79
2023/12/08 05:50:56;;;;;;;13.30;9.25;;;;;;;0.99;61.49;93883.28;4883056;29;20593;-78
2023/12/08 05:53:22;;;;;;;19.10;14.68;;;;;;;0.93;62.71;93904.47;4880696;29;20560;-78
2023/12/08 05:55:48;;;;;;;23.48;15.48;;;;;;;1.11;62.72;93915.34;4895400;29;20064;-76
2023/12/08 05:58:13;;;;;;;21.58;17.17;;;;;;;1.04;63.14;93913.97;4896698;29;20611;-77
2023/12/08 06:00:39;;;;;;;16.92;12.40;;;;;;;1.23;62.79;93915.16;4891239;29;20044;-77
2023/12/08 06:03:04;;;;;;;14.65;11.95;;;;;;;1.48;61.51;93927.63;4893834;29;20044;-77
2023/12/08 06:05:29;;;;;;;29.10;24.02;;;;;;;1.51;61.41;93920.06;4890653;29;20616;-78
2023/12/08 06:07:55;;;;;;;31.88;26.15;;;;;;;1.48;61.41;93925.78;4878237;29;20111;-77
2023/12/08 06:10:22;;;;;;;33.90;23.52;;;;;;;1.58;61.45;93923.22;4883256;29;20088;-78
2023/12/08 06:12:47;;;;;;;50.00;33.28;;;;;;;1.43;61.27;93904.78;4880764;29;20052;-79
2023/12/08 06:15:13;;;;;;;27.50;16.98;;;;;;;1.30;60.33;93923.59;4882600;29;20068;-78
2023/12/08 06:17:38;;;;;;;28.98;19.08;;;;;;;1.17;60.93;93908.31;4879888;29;20048;-77
2023/12/08 06:20:08;;;;;;;55.75;32.60;;;;;;;1.31;61.17;93933.03;4882895;29;20047;-78
2023/12/08 06:22:34;;;;;;;51.30;28.83;;;;;;;1.58;60.74;93933.72;4878136;29;20028;-78
2023/12/08 06:24:59;;;;;;;18.17;12.48;;;;;;;1.46;60.31;93930.50;4885257;29;20072;-78
2023/12/08 06:27:24;;;;;;;23.25;15.75;;;;;;;1.39;60.48;93939.63;4883795;29;20838;-79
2023/12/08 06:29:50;;;;;;;14.40;10.02;;;;;;;1.11;60.99;93943.38;4881570;29;20083;-77
2023/12/08 06:32:18;;;;;;;34.47;21.63;;;;;;;1.21;61.59;93941.63;4880862;29;20737;-77
2023/12/08 06:34:45;;;;;;;30.38;18.30;;;;;;;1.23;60.27;93909.91;4882529;29;20316;-76
2023/12/08 06:37:12;;;;;;;39.67;25.20;;;;;;;1.16;61.34;93938.16;4873949;29;20116;-75
2023/12/08 06:39:39;;;;;;;41.47;24.77;;;;;;;1.08;61.71;93922.94;4886239;29;20028;-77
2023/12/08 06:42:05;;;;;;;41.38;24.25;;;;;;;1.21;61.96;93940.81;4880175;29;20032;-77
2023/12/08 06:44:30;;;;;;;33.08;20.83;;;;;;;1.19;61.85;93937.66;4882162;29;20052;-78
2023/12/08 06:46:56;;;;;;;56.67;31.42;;;;;;;1.27;61.45;93952.94;4881329;29;20024;-76
2023/12/08 06:49:21;;;;;;;43.25;23.48;;;;;;;1.13;61.84;93938.69;4882749;29;20037;-78
2023/12/08 06:51:49;;;;;;;29.13;17.92;;;;;;;1.27;61.57;93950.31;4881836;29;20044;-76
2023/12/08 06:54:14;;;;;;;34.05;19.92;;;;;;;1.16;61.40;93946.03;4883042;29;20050;-78
2023/12/08 06:56:43;;;;;;;34.13;19.80;;;;;;;1.19;61.51;93930.59;4885950;29;20036;-78
2023/12/08 06:59:09;;;;;;;18.38;13.43;;;;;;;1.36;60.69;93948.78;4880380;29;20043;-78
2023/12/08 07:01:37;;;;;;;19.48;13.98;;;;;;;1.26;61.62;93955.78;4880792;29;20521;-77
2023/12/08 07:04:03;;;;;;;24.25;16.60;;;;;;;1.15;61.73;93944.44;4898642;29;20074;-79
2023/12/08 07:06:29;;;;;;;22.02;14.18;;;;;;;1.03;61.65;93925.50;4880962;29;20177;-78
2023/12/08 07:08:55;;;;;;;24.45;14.27;;;;;;;1.23;60.85;93949.22;4879172;29;20032;-79
2023/12/08 07:11:20;;;;;;;12.93;8.93;;;;;;;1.16;62.12;93953.88;4880166;29;20064;-79
2023/12/08 07:13:46;;;;;;;12.60;9.50;;;;;;;0.98;62.12;93934.13;4887153;29;20682;-78
2023/12/08 07:16:12;;;;;;;18.02;13.52;;;;;;;1.01;62.61;93943.28;4883054;29;20029;-78
2023/12/08 07:18:37;;;;;;;17.08;12.57;;;;;;;0.98;62.61;93933.31;4883680;29;20582;-78
2023/12/08 07:21:06;;;;;;;18.42;13.95;;;;;;;1.14;62.43;93953.34;4881934;29;20591;-77
2023/12/08 07:23:31;;;;;;;16.40;11.27;;;;;;;1.23;61.94;93957.06;4885344;29;20104;-76
2023/12/08 07:25:57;;;;;;;23.08;15.65;;;;;;;1.00;62.16;93946.94;4884111;29;20035;-79
2023/12/08 07:28:22;;;;;;;21.50;15.15;;;;;;;1.05;62.36;93944.38;4877587;29;20036;-78
2023/12/08 07:30:48;;;;;;;23.20;17.15;;;;;;;1.16;62.37;93961.75;4876499;29;20036;-79
2023/12/08 07:33:13;;;;;;;25.80;18.05;;;;;;;1.28;61.81;93946.63;4882240;29;20035;-78
2023/12/08 07:35:39;;;;;;;21.38;15.07;;;;;;;1.35;62.05;93967.38;4875521;29;20044;-77
2023/12/08 07:38:05;;;;;;;43.67;26.27;;;;;;;1.31;62.62;93964.47;4879063;29;20495;-77
2023/12/08 07:40:31;;;;;;;15.07;11.50;;;;;;;1.24;61.73;93958.66;4877586;29;20028;-79
2023/12/08 07:42:56;;;;;;;16.10;13.05;;;;;;;1.12;61.57;93965.91;4879226;29;20028;-75
2023/12/08 07:45:22;;;;;;;27.63;23.52;;;;;;;1.10;62.69;93954.88;4893298;29;20036;-75
2023/12/08 07:47:50;;;;;;;39.15;28.73;;;;;;;1.27;62.98;93979.13;4877147;29;20866;-76
2023/12/08 07:50:16;;;;;;;17.67;15.27;;;;;;;1.21;62.73;93967.03;4877635;29;20036;-79
2023/12/08 07:52:42;;;;;;;18.05;11.63;;;;;;;1.24;62.48;93966.50;4879003;29;20099;-79
2023/12/08 07:55:10;;;;;;;9.23;7.45;;;;;;;1.17;62.09;93945.78;4876483;29;20135;-76
2023/12/08 07:57:36;;;;;;;12.35;9.13;;;;;;;1.23;62.43;93967.53;4881452;29;20036;-76
2023/12/08 08:00:10;;;;;;;61.67;34.92;;;;;;;1.14;62.69;93969.06;4876977;29;20071;-77
2023/12/08 08:02:37;;;;;;;10.05;7.95;;;;;;;1.26;62.68;93967.06;4876782;29;20613;-76
2023/12/08 08:05:05;;;;;;;60.47;31.23;;;;;;;1.17;62.34;93952.84;4879677;29;20992;-78
2023/12/08 08:07:31;;;;;;;45.35;24.17;;;;;;;1.20;62.80;93952.34;4878224;29;20677;-77
2023/12/08 08:09:57;;;;;;;66.25;35.70;;;;;;;1.27;61.87;93950.31;4870021;29;20052;-78
2023/12/08 08:12:22;;;;;;;90.57;49.75;;;;;;;1.26;61.81;93940.06;4882183;29;20036;-78
2023/12/08 08:14:48;;;;;;;41.90;25.77;;;;;;;1.31;62.13;93938.28;4885740;29;20554;-78
2023/12/08 08:17:13;;;;;;;19.80;13.25;;;;;;;1.21;61.60;93944.25;4884218;29;20045;-78
2023/12/08 08:19:41;;;;;;;29.73;18.80;;;;;;;1.21;61.71;93940.81;4886213;29;20020;-76
2023/12/08 08:22:06;;;;;;;45.47;29.33;;;;;;;1.20;61.64;93934.00;4899607;29;20031;-79
2023/12/08 08:24:32;;;;;;;29.90;21.50;;;;;;;1.14;61.89;93927.13;4894390;29;20059;-79
2023/12/08 08:26:57;;;;;;;15.48;12.32;;;;;;;1.50;61.59;93936.81;4882382;29;20071;-77
2023/12/08 08:29:23;;;;;;;24.77;16.23;;;;;;;1.02;61.18;93887.25;4882409;29;20070;-80
2023/12/08 08:31:48;;;;;;;32.13;20.23;;;;;;;1.25;61.32;93907.84;4884949;29;20032;-77
2023/12/08 08:34:14;;;;;;;32.90;20.20;;;;;;;1.34;61.34;93929.91;4880269;29;20485;-78
2023/12/08 08:36:39;;;;;;;36.25;21.40;;;;;;;1.32;61.45;93921.53;4886541;29;20040;-78
2023/12/08 08:39:04;;;;;;;27.17;19.35;;;;;;;1.45;61.32;93909.78;4880912;29;20033;-78
2023/12/08 08:41:30;;;;;;;30.75;20.17;;;;;;;1.22;60.73;93880.31;4885943;29;20040;-78
2023/12/08 08:43:55;;;;;;;71.78;42.85;;;;;;;1.37;61.15;93921.56;4882950;29;20024;-78
2023/12/08 08:46:21;;;;;;;35.33;18.75;;;;;;;1.19;61.75;93914.06;4885249;29;20495;-78
2023/12/08 08:48:49;;;;;;;53.33;30.67;;;;;;;1.11;62.02;93917.97;4882529;29;21215;-78
2023/12/08 08:51:16;;;;;;;27.08;19.75;;;;;;;1.16;61.84;93902.28;4898906;29;20119;-77
2023/12/08 08:53:41;;;;;;;19.80;14.80;;;;;;;1.19;61.32;93912.25;4885597;29;20048;-78
2023/12/08 08:56:07;;;;;;;26.48;19.80;;;;;;;1.17;62.10;93895.22;4891323;29;20089;-77
2023/12/08 08:58:34;;;;;;;25.42;18.50;;;;;;;1.44;62.12;93910.81;4886929;29;21062;-79
2023/12/08 09:01:00;;;;;;;39.03;22.88;;;;;;;1.59;61.55;93909.09;4885330;29;20045;-78
2023/12/08 09:03:25;;;;;;;30.20;19.13;;;;;;;1.68;60.42;93910.16;4881436;29;20043;-78
2023/12/08 09:05:51;;;;;;;36.58;23.35;;;;;;;1.50;60.72;93894.09;4884696;29;20036;-77
2023/12/08 09:08:16;;;;;;;46.60;30.27;;;;;;;1.72;60.62;93899.97;4885339;29;20040;-78
2023/12/08 09:10:45;;;;;;;36.38;22.70;;;;;;;1.62;59.83;93908.56;4888328;29;20036;-77
2023/12/08 09:13:14;;;;;;;39.97;26.77;;;;;;;1.60;60.49;93873.97;4875341;29;20041;-77
2023/12/08 09:15:39;;;;;;;37.10;24.23;;;;;;;1.75;59.90;93901.28;4883042;29;20052;-77
2023/12/08 09:18:06;;;;;;;29.10;20.48;;;;;;;1.54;59.77;93888.09;4886637;29;20040;-80
2023/12/08 09:20:31;;;;;;;35.05;23.98;;;;;;;1.57;60.19;93873.69;4884953;29;20036;-78
2023/12/08 09:22:57;;;;;;;34.83;21.02;;;;;;;1.61;60.14;93896.53;4884912;29;20042;-79
2023/12/08 09:25:23;;;;;;;62.78;31.23;;;;;;;1.73;59.46;93882.41;4886912;29;20066;-78
2023/12/08 09:27:49;;;;;;;34.70;20.95;;;;;;;1.75;59.67;93880.31;4882101;29;20044;-78
2023/12/08 09:30:14;;;;;;;46.55;29.58;;;;;;;1.68;60.08;93870.84;4884259;29;20048;-78
2023/12/08 09:32:40;;;;;;;23.27;18.13;;;;;;;1.60;60.04;93858.25;4882016;29;20037;-78
2023/12/08 09:35:06;;;;;;;32.75;21.83;;;;;;;1.78;59.41;93882.41;4885289;29;20122;-77
2023/12/08 09:37:32;;;;;;;20.73;15.07;;;;;;;1.64;58.94;93884.72;4885386;29;20330;-79
2023/12/08 09:39:57;;;;;;;18.20;14.60;;;;;;;1.40;59.76;93868.63;4884640;29;20036;-79
2023/12/08 09:42:31;;;;;;;16.52;12.27;;;;;;;1.60;60.84;93879.22;4897168;29;20627;-77
2023/12/08 09:44:56;;;;;;;16.58;12.18;;;;;;;1.65;59.89;93866.13;4884849;29;20543;-78
2023/12/08 09:47:24;;;;;;;11.65;9.00;;;;;;;1.52;59.49;93866.56;4886714;29;20036;-79
2023/12/08 09:49:52;;;;;;;10.23;7.75;;;;;;;1.52;59.56;93863.19;4887257;29;20572;-78
2023/12/08 09:52:17;;;;;;;11.90;8.50;;;;;;;1.48;60.16;93849.00;4885122;29;20297;-77
2023/12/08 09:54:43;;;;;;;9.98;7.25;;;;;;;1.59;60.18;93843.53;4887015;29;20036;-79
2023/12/08 09:57:09;;;;;;;9.13;6.38;;;;;;;1.58;60.05;93834.09;4882964;29;20047;-79
2023/12/08 09:59:37;;;;;;;11.52;8.25;;;;;;;1.60;61.52;93863.47;4884575;29;20400;-78
2023/12/08 10:02:03;;;;;;;25.35;22.08;;;;;;;1.74;60.67;93842.03;4880250;29;20063;-79
2023/12/08 10:04:29;;;;;;;10.30;8.15;;;;;;;1.68;60.62;93835.97;4885857;29;20076;-79
2023/12/08 10:07:03;;;;;;;11.00;7.78;;;;;;;1.73;60.02;93835.19;4887514;29;20037;-78
2023/12/08 10:09:30;;;;;;;11.23;10.02;;;;;;;1.82;60.45;93850.16;4881032;29;20909;-79
2023/12/08 10:11:56;;;;;;;22.40;19.13;;;;;;;1.92;60.52;93838.97;4887427;29;20682;-78
2023/12/08 10:14:23;;;;;;;25.95;20.73;;;;;;;2.01;60.69;93840.81;4899064;29;20052;-79
2023/12/08 10:16:49;;;;;;;19.73;15.75;;;;;;;2.10;59.64;93835.88;4885607;29;20029;-78
2023/12/08 10:19:19;;;;;;;16.10;13.35;;;;;;;1.86;59.92;93816.38;4900634;29;20016;-77
2023/12/08 10:21:54;;;;;;;10.93;9.15;;;;;;;1.82;59.80;93817.91;4885841;29;20037;-79
2023/12/08 10:24:20;;;;;;;10.77;8.43;;;;;;;1.64;60.24;93804.25;4896172;29;20040;-78
2023/12/08 10:26:45;;;;;;;10.20;7.75;;;;;;;1.76;59.54;93826.84;4883744;29;20086;-80
2023/12/08 10:29:11;;;;;;;9.15;6.90;;;;;;;1.04;60.17;93722.78;4882734;29;20096;-80
2023/12/08 10:31:40;;;;;;;9.68;7.78;;;;;;;1.65;59.72;93813.69;4885485;29;20033;-79
2023/12/08 10:34:06;;;;;;;9.00;7.28;;;;;;;1.68;60.40;93833.34;4882313;29;20032;-76
2023/12/08 10:36:31;;;;;;;9.43;6.80;;;;;;;1.62;61.05;93816.00;4897734;29;20032;-78
2023/12/08 10:38:57;;;;;;;8.43;6.65;;;;;;;1.87;59.87;93820.59;4883345;29;20043;-79
2023/12/08 10:41:22;;;;;;;11.27;7.93;;;;;;;1.56;59.82;93815.22;4886503;29;20036;-80
2023/12/08 10:43:48;;;;;;;10.82;8.73;;;;;;;1.45;60.21;93802.34;4878723;29;20033;-77
2023/12/08 10:46:13;;;;;;;11.32;8.02;;;;;;;1.68;59.93;93807.91;4887908;29;20024;-79
2023/12/08 10:48:40;;;;;;;12.40;9.45;;;;;;;1.48;60.94;93807.84;4875468;29;20036;-78
2023/12/08 10:51:13;;;;;;;9.88;7.80;;;;;;;1.73;60.44;93829.94;4892621;29;20772;-80
2023/12/08 10:53:38;;;;;;;13.40;8.85;;;;;;;1.67;60.39;93792.44;4883015;29;20139;-78
2023/12/08 10:56:11;;;;;;;13.43;9.32;;;;;;;1.78;60.19;93812.41;4904269;29;20041;-78
2023/12/08 10:58:41;;;;;;;12.23;9.70;;;;;;;1.50;60.77;93786.63;4889458;29;20024;-79
2023/12/08 11:01:12;;;;;;;17.02;10.90;;;;;;;1.76;60.85;93808.47;4896931;29;20084;-80
2023/12/08 11:03:39;;;;;;;13.90;9.63;;;;;;;1.99;60.47;93813.28;4917439;29;20044;-78
2023/12/08 11:06:38;;;;;;;15.65;10.02;;;;;;;1.98;60.28;93806.44;4910457;29;20440;-78
2023/12/08 11:09:07;;;;;;;13.38;9.77;;;;;;;2.06;59.95;93808.56;4878110;29;20048;-79
2023/12/08 11:11:37;;;;;;;14.13;10.57;;;;;;;1.99;59.81;93813.28;4889480;29;20039;-77
2023/12/08 11:14:13;;;;;;;17.48;11.50;;;;;;;2.03;59.33;93790.72;4887775;29;20119;-78
2023/12/08 11:16:47;;;;;;;48.83;28.42;;;;;;;2.08;58.96;93795.97;4888145;29;20043;-77
2023/12/08 11:19:14;;;;;;;169.50;79.45;;;;;;;1.91;59.29;93787.56;4901182;29;20100;-77
2023/12/08 11:21:40;;;;;;;166.00;92.00;;;;;;;2.12;58.89;93794.41;4889533;29;20533;-78
2023/12/08 11:24:07;;;;;;;206.80;103.72;;;;;;;2.11;59.13;93782.34;4885335;29;20041;-77
2023/12/08 11:26:50;;;;;;;73.93;37.40;;;;;;;2.25;58.63;93791.28;4887297;29;20185;-77
2023/12/08 11:30:05;;;;;;;95.00;47.13;;;;;;;2.31;58.69;93794.69;4905534;29;20061;-79